Aviation Digital Data Service (ADDS)

Output produced by METARs form (1803 UTC 20 January 2017)
found at http://aviationweather.gov/adds/metars/
 
KYNG 201740Z 2018/2118 16008KT 3SM BR OVC006 
     TEMPO 2018/2022 1SM BR OVC003 
     FM202200 20006KT 5SM BR OVC008 
     FM210200 20005KT 4SM BR OVC012 
     TEMPO 2110/2114 2SM BR OVC006 
     FM211500 20008KT 6SM BR OVC020